Terminal Aerodrome Forecast
Issued by NWS

Home | Current Version | Previous Version | Text Only | Print | Product List | Glossary On
Versions: 1 2 3 4 5 6 7 8 9 10 11
000
FTUS45 KREV 282300
TAFMMH
TAF
KMMH 282331Z 2900/2924 28010G18KT P6SM SKC
     FM290400 29008KT P6SM SKC
     FM292000 28015G24KT P6SM SKC
      AMD NOT SKED 2902/2914=

USA.gov is the U.S. government's official web portal to all federal, state and local government web resources and services.